sensor_id;sensor_type;location;lat;lon;timestamp;temperature;humidity
13203;DHT22;6666;51.626;7.530;2023-03-25T00:00:53;10.20;99.90
13203;DHT22;6666;51.626;7.530;2023-03-25T00:03:23;10.10;99.90
13203;DHT22;6666;51.626;7.530;2023-03-25T00:05:52;10.10;99.90
13203;DHT22;6666;51.626;7.530;2023-03-25T00:08:22;10.10;99.90
13203;DHT22;6666;51.626;7.530;2023-03-25T00:10:51;10.10;99.90
13203;DHT22;6666;51.626;7.530;2023-03-25T00:13:20;10.10;99.90
13203;DHT22;6666;51.626;7.530;2023-03-25T00:15:50;10.10;99.90
13203;DHT22;6666;51.626;7.530;2023-03-25T00:18:20;10.10;99.90
13203;DHT22;6666;51.626;7.530;2023-03-25T00:20:48;10.10;99.90
13203;DHT22;6666;51.626;7.530;2023-03-25T00:23:18;10.10;99.90
13203;DHT22;6666;51.626;7.530;2023-03-25T00:25:49;10.10;99.90
13203;DHT22;6666;51.626;7.530;2023-03-25T00:28:19;10.10;99.90
13203;DHT22;6666;51.626;7.530;2023-03-25T00:30:47;10.10;99.90
13203;DHT22;6666;51.626;7.530;2023-03-25T00:33:15;10.00;99.90
13203;DHT22;6666;51.626;7.530;2023-03-25T00:35:44;10.00;99.90
13203;DHT22;6666;51.626;7.530;2023-03-25T00:38:15;10.00;99.90
13203;DHT22;6666;51.626;7.530;2023-03-25T00:40:44;10.00;99.90
13203;DHT22;6666;51.626;7.530;2023-03-25T00:43:15;10.00;99.90
13203;DHT22;6666;51.626;7.530;2023-03-25T00:45:44;10.00;99.90
13203;DHT22;6666;51.626;7.530;2023-03-25T00:48:12;10.00;99.90
13203;DHT22;6666;51.626;7.530;2023-03-25T00:50:40;10.00;99.90
13203;DHT22;6666;51.626;7.530;2023-03-25T00:53:08;10.00;99.90
13203;DHT22;6666;51.626;7.530;2023-03-25T00:55:37;10.00;99.90
13203;DHT22;6666;51.626;7.530;2023-03-25T00:58:05;10.00;99.90
13203;DHT22;6666;51.626;7.530;2023-03-25T01:00:34;10.00;99.90
13203;DHT22;6666;51.626;7.530;2023-03-25T01:03:03;10.00;99.90
13203;DHT22;6666;51.626;7.530;2023-03-25T01:05:31;10.00;99.90
13203;DHT22;6666;51.626;7.530;2023-03-25T01:07:59;10.00;99.90
13203;DHT22;6666;51.626;7.530;2023-03-25T01:10:28;10.10;99.90
13203;DHT22;6666;51.626;7.530;2023-03-25T01:12:57;10.00;99.90
13203;DHT22;6666;51.626;7.530;2023-03-25T01:15:25;10.00;99.90
13203;DHT22;6666;51.626;7.530;2023-03-25T01:17:55;9.90;99.90
13203;DHT22;6666;51.626;7.530;2023-03-25T01:20:23;10.00;99.90
13203;DHT22;6666;51.626;7.530;2023-03-25T01:22:52;10.00;99.90
13203;DHT22;6666;51.626;7.530;2023-03-25T01:25:20;9.90;99.90
13203;DHT22;6666;51.626;7.530;2023-03-25T01:27:49;9.90;99.90
13203;DHT22;6666;51.626;7.530;2023-03-25T01:30:17;10.00;99.90
13203;DHT22;6666;51.626;7.530;2023-03-25T01:32:45;10.00;99.90
13203;DHT22;6666;51.626;7.530;2023-03-25T01:35:15;9.90;99.90
13203;DHT22;6666;51.626;7.530;2023-03-25T01:37:43;9.90;99.90
13203;DHT22;6666;51.626;7.530;2023-03-25T01:40:17;9.90;99.90
13203;DHT22;6666;51.626;7.530;2023-03-25T01:42:46;9.90;99.90
13203;DHT22;6666;51.626;7.530;2023-03-25T01:45:19;9.90;99.90
13203;DHT22;6666;51.626;7.530;2023-03-25T01:47:52;10.00;99.90
13203;DHT22;6666;51.626;7.530;2023-03-25T01:50:26;10.00;99.90
13203;DHT22;6666;51.626;7.530;2023-03-25T01:52:56;9.80;99.90
13203;DHT22;6666;51.626;7.530;2023-03-25T01:55:25;9.80;99.90
13203;DHT22;6666;51.626;7.530;2023-03-25T01:57:56;9.80;99.90
13203;DHT22;6666;51.626;7.530;2023-03-25T02:00:25;9.70;99.90
13203;DHT22;6666;51.626;7.530;2023-03-25T02:02:56;9.80;99.90
13203;DHT22;6666;51.626;7.530;2023-03-25T02:05:32;9.80;99.90
13203;DHT22;6666;51.626;7.530;2023-03-25T02:08:03;9.80;99.90
13203;DHT22;6666;51.626;7.530;2023-03-25T02:10:35;9.80;99.90
13203;DHT22;6666;51.626;7.530;2023-03-25T02:13:05;9.70;99.90
13203;DHT22;6666;51.626;7.530;2023-03-25T02:15:44;9.80;99.90
13203;DHT22;6666;51.626;7.530;2023-03-25T02:18:25;9.80;99.90
13203;DHT22;6666;51.626;7.530;2023-03-25T02:21:37;9.80;99.90
13203;DHT22;6666;51.626;7.530;2023-03-25T02:24:38;9.80;99.90
13203;DHT22;6666;51.626;7.530;2023-03-25T02:27:26;9.70;99.90
13203;DHT22;6666;51.626;7.530;2023-03-25T02:30:19;9.70;99.90
13203;DHT22;6666;51.626;7.530;2023-03-25T02:36:10;9.80;99.90
13203;DHT22;6666;51.626;7.530;2023-03-25T02:38:45;9.80;99.90
13203;DHT22;6666;51.626;7.530;2023-03-25T02:41:19;9.70;99.90
13203;DHT22;6666;51.626;7.530;2023-03-25T02:43:56;9.60;99.90
13203;DHT22;6666;51.626;7.530;2023-03-25T02:46:25;9.50;99.90
13203;DHT22;6666;51.626;7.530;2023-03-25T02:48:57;9.40;99.90
13203;DHT22;6666;51.626;7.530;2023-03-25T02:51:31;9.50;99.90
13203;DHT22;6666;51.626;7.530;2023-03-25T02:54:07;9.50;99.90
13203;DHT22;6666;51.626;7.530;2023-03-25T02:56:38;9.60;99.90
13203;DHT22;6666;51.626;7.530;2023-03-25T02:59:08;9.60;99.90
13203;DHT22;6666;51.626;7.530;2023-03-25T03:01:40;9.60;99.90
13203;DHT22;6666;51.626;7.530;2023-03-25T03:04:09;9.60;99.90
13203;DHT22;6666;51.626;7.530;2023-03-25T03:06:39;9.60;99.90
13203;DHT22;6666;51.626;7.530;2023-03-25T03:09:21;9.60;99.90
13203;DHT22;6666;51.626;7.530;2023-03-25T03:12:10;9.70;99.90
13203;DHT22;6666;51.626;7.530;2023-03-25T03:14:55;9.70;99.90
13203;DHT22;6666;51.626;7.530;2023-03-25T03:17:27;9.60;99.90
13203;DHT22;6666;51.626;7.530;2023-03-25T03:20:09;9.60;99.90
13203;DHT22;6666;51.626;7.530;2023-03-25T03:22:43;9.70;99.90
13203;DHT22;6666;51.626;7.530;2023-03-25T03:25:26;9.60;99.90
13203;DHT22;6666;51.626;7.530;2023-03-25T03:27:56;9.60;99.90
13203;DHT22;6666;51.626;7.530;2023-03-25T03:30:33;9.60;99.90
13203;DHT22;6666;51.626;7.530;2023-03-25T03:33:07;9.60;99.90
13203;DHT22;6666;51.626;7.530;2023-03-25T03:35:43;9.60;99.90
13203;DHT22;6666;51.626;7.530;2023-03-25T03:38:18;9.60;99.90
13203;DHT22;6666;51.626;7.530;2023-03-25T03:40:52;9.60;99.90
13203;DHT22;6666;51.626;7.530;2023-03-25T03:43:25;9.60;99.90
13203;DHT22;6666;51.626;7.530;2023-03-25T03:45:58;9.60;99.90
13203;DHT22;6666;51.626;7.530;2023-03-25T03:48:31;9.60;99.90
13203;DHT22;6666;51.626;7.530;2023-03-25T03:51:03;9.60;99.90
13203;DHT22;6666;51.626;7.530;2023-03-25T03:53:36;9.60;99.90
13203;DHT22;6666;51.626;7.530;2023-03-25T03:56:09;9.50;99.90
13203;DHT22;6666;51.626;7.530;2023-03-25T03:58:41;9.60;99.90
13203;DHT22;6666;51.626;7.530;2023-03-25T04:01:12;9.60;99.90
13203;DHT22;6666;51.626;7.530;2023-03-25T04:03:45;9.60;99.90
13203;DHT22;6666;51.626;7.530;2023-03-25T04:06:18;9.60;99.90
13203;DHT22;6666;51.626;7.530;2023-03-25T04:08:54;9.50;99.90
13203;DHT22;6666;51.626;7.530;2023-03-25T04:11:31;9.40;99.90
13203;DHT22;6666;51.626;7.530;2023-03-25T04:14:02;9.30;99.90
13203;DHT22;6666;51.626;7.530;2023-03-25T04:16:31;9.10;99.90
13203;DHT22;6666;51.626;7.530;2023-03-25T04:19:02;9.10;99.90
13203;DHT22;6666;51.626;7.530;2023-03-25T04:21:31;9.00;99.90
13203;DHT22;6666;51.626;7.530;2023-03-25T04:23:59;9.10;99.90
13203;DHT22;6666;51.626;7.530;2023-03-25T04:26:29;9.10;99.90
13203;DHT22;6666;51.626;7.530;2023-03-25T04:29:00;9.10;99.90
13203;DHT22;6666;51.626;7.530;2023-03-25T04:31:29;9.10;99.90
13203;DHT22;6666;51.626;7.530;2023-03-25T04:33:58;9.20;99.90
13203;DHT22;6666;51.626;7.530;2023-03-25T04:36:28;9.20;99.90
13203;DHT22;6666;51.626;7.530;2023-03-25T04:38:59;9.20;99.90
13203;DHT22;6666;51.626;7.530;2023-03-25T04:41:29;9.10;99.90
13203;DHT22;6666;51.626;7.530;2023-03-25T04:43:59;9.10;99.90
13203;DHT22;6666;51.626;7.530;2023-03-25T04:46:28;9.00;99.90
13203;DHT22;6666;51.626;7.530;2023-03-25T04:48:56;9.00;99.90
13203;DHT22;6666;51.626;7.530;2023-03-25T04:51:26;9.00;99.90
13203;DHT22;6666;51.626;7.530;2023-03-25T04:53:56;9.00;99.90
13203;DHT22;6666;51.626;7.530;2023-03-25T04:56:24;9.00;99.90
13203;DHT22;6666;51.626;7.530;2023-03-25T04:58:54;9.00;99.90
13203;DHT22;6666;51.626;7.530;2023-03-25T05:01:23;9.10;99.90
13203;DHT22;6666;51.626;7.530;2023-03-25T05:03:57;9.10;99.90
13203;DHT22;6666;51.626;7.530;2023-03-25T05:06:32;9.00;99.90
13203;DHT22;6666;51.626;7.530;2023-03-25T05:09:02;9.00;99.90
13203;DHT22;6666;51.626;7.530;2023-03-25T05:11:32;9.10;99.90
13203;DHT22;6666;51.626;7.530;2023-03-25T05:14:02;9.10;99.90
13203;DHT22;6666;51.626;7.530;2023-03-25T05:16:30;9.00;99.90
13203;DHT22;6666;51.626;7.530;2023-03-25T05:18:58;9.00;99.90
13203;DHT22;6666;51.626;7.530;2023-03-25T05:21:26;8.90;99.90
13203;DHT22;6666;51.626;7.530;2023-03-25T05:23:55;8.90;99.90
13203;DHT22;6666;51.626;7.530;2023-03-25T05:26:24;8.90;99.90
13203;DHT22;6666;51.626;7.530;2023-03-25T05:28:55;8.90;99.90
13203;DHT22;6666;51.626;7.530;2023-03-25T05:31:29;9.00;99.90
13203;DHT22;6666;51.626;7.530;2023-03-25T05:33:58;9.00;99.90
13203;DHT22;6666;51.626;7.530;2023-03-25T05:36:26;9.00;99.90
13203;DHT22;6666;51.626;7.530;2023-03-25T05:38:55;9.00;99.90
13203;DHT22;6666;51.626;7.530;2023-03-25T05:41:26;9.10;99.90
13203;DHT22;6666;51.626;7.530;2023-03-25T05:43:59;9.10;99.90
13203;DHT22;6666;51.626;7.530;2023-03-25T05:46:29;9.10;99.90
13203;DHT22;6666;51.626;7.530;2023-03-25T05:48:57;9.10;99.90
13203;DHT22;6666;51.626;7.530;2023-03-25T05:51:28;9.10;99.90
13203;DHT22;6666;51.626;7.530;2023-03-25T05:54:00;9.10;99.90
13203;DHT22;6666;51.626;7.530;2023-03-25T05:56:28;9.20;99.90
13203;DHT22;6666;51.626;7.530;2023-03-25T05:58:57;9.30;99.90
13203;DHT22;6666;51.626;7.530;2023-03-25T06:01:25;9.20;99.90
13203;DHT22;6666;51.626;7.530;2023-03-25T06:04:01;9.20;99.90
13203;DHT22;6666;51.626;7.530;2023-03-25T06:06:31;9.20;99.90
13203;DHT22;6666;51.626;7.530;2023-03-25T06:09:01;9.30;99.90
13203;DHT22;6666;51.626;7.530;2023-03-25T06:11:30;9.20;99.90
13203;DHT22;6666;51.626;7.530;2023-03-25T06:14:04;9.20;99.90
13203;DHT22;6666;51.626;7.530;2023-03-25T06:16:33;9.20;99.90
13203;DHT22;6666;51.626;7.530;2023-03-25T06:19:03;9.30;99.90
13203;DHT22;6666;51.626;7.530;2023-03-25T06:21:34;9.30;99.90
13203;DHT22;6666;51.626;7.530;2023-03-25T06:24:03;9.30;99.90
13203;DHT22;6666;51.626;7.530;2023-03-25T06:26:31;9.40;99.90
13203;DHT22;6666;51.626;7.530;2023-03-25T06:29:00;9.40;99.90
13203;DHT22;6666;51.626;7.530;2023-03-25T06:31:30;9.40;99.90
13203;DHT22;6666;51.626;7.530;2023-03-25T06:34:00;9.40;99.90
13203;DHT22;6666;51.626;7.530;2023-03-25T06:36:30;9.40;99.90
13203;DHT22;6666;51.626;7.530;2023-03-25T06:39:00;9.50;99.90
13203;DHT22;6666;51.626;7.530;2023-03-25T06:41:31;9.50;99.90
13203;DHT22;6666;51.626;7.530;2023-03-25T06:44:11;9.50;99.90
13203;DHT22;6666;51.626;7.530;2023-03-25T06:47:05;9.50;99.90
13203;DHT22;6666;51.626;7.530;2023-03-25T06:49:48;9.50;99.90
13203;DHT22;6666;51.626;7.530;2023-03-25T06:52:18;9.60;99.90
13203;DHT22;6666;51.626;7.530;2023-03-25T06:54:46;9.70;99.90
13203;DHT22;6666;51.626;7.530;2023-03-25T06:57:14;9.70;99.90
13203;DHT22;6666;51.626;7.530;2023-03-25T06:59:43;9.90;99.90
13203;DHT22;6666;51.626;7.530;2023-03-25T07:02:11;9.90;99.90
13203;DHT22;6666;51.626;7.530;2023-03-25T07:04:40;10.00;99.90
13203;DHT22;6666;51.626;7.530;2023-03-25T07:07:09;10.10;99.90
13203;DHT22;6666;51.626;7.530;2023-03-25T07:09:38;10.40;99.90
13203;DHT22;6666;51.626;7.530;2023-03-25T07:12:07;10.20;99.90
13203;DHT22;6666;51.626;7.530;2023-03-25T07:14:35;10.20;99.90
13203;DHT22;6666;51.626;7.530;2023-03-25T07:17:03;10.20;99.90
13203;DHT22;6666;51.626;7.530;2023-03-25T07:19:32;10.00;99.90
13203;DHT22;6666;51.626;7.530;2023-03-25T07:22:00;10.20;99.90
13203;DHT22;6666;51.626;7.530;2023-03-25T07:24:31;10.20;99.90
13203;DHT22;6666;51.626;7.530;2023-03-25T07:27:01;10.50;99.90
13203;DHT22;6666;51.626;7.530;2023-03-25T07:29:31;10.60;99.90
13203;DHT22;6666;51.626;7.530;2023-03-25T07:31:59;10.50;99.90
13203;DHT22;6666;51.626;7.530;2023-03-25T07:34:28;10.80;99.90
13203;DHT22;6666;51.626;7.530;2023-03-25T07:36:57;10.70;99.90
13203;DHT22;6666;51.626;7.530;2023-03-25T07:39:25;10.50;99.90
13203;DHT22;6666;51.626;7.530;2023-03-25T07:41:54;10.30;99.90
13203;DHT22;6666;51.626;7.530;2023-03-25T07:44:32;10.30;99.90
13203;DHT22;6666;51.626;7.530;2023-03-25T07:47:00;10.40;99.90
13203;DHT22;6666;51.626;7.530;2023-03-25T07:49:28;10.50;99.90
13203;DHT22;6666;51.626;7.530;2023-03-25T07:51:57;10.60;99.90
13203;DHT22;6666;51.626;7.530;2023-03-25T07:54:25;10.70;99.90
13203;DHT22;6666;51.626;7.530;2023-03-25T07:56:54;10.90;99.90
13203;DHT22;6666;51.626;7.530;2023-03-25T07:59:23;10.80;99.90
13203;DHT22;6666;51.626;7.530;2023-03-25T08:01:55;10.80;99.90
13203;DHT22;6666;51.626;7.530;2023-03-25T08:04:24;10.80;99.90
13203;DHT22;6666;51.626;7.530;2023-03-25T08:06:52;10.80;99.90
13203;DHT22;6666;51.626;7.530;2023-03-25T08:09:21;10.70;99.90
13203;DHT22;6666;51.626;7.530;2023-03-25T08:11:49;10.60;99.90
13203;DHT22;6666;51.626;7.530;2023-03-25T08:14:17;10.30;99.90
13203;DHT22;6666;51.626;7.530;2023-03-25T08:16:45;10.20;99.90
13203;DHT22;6666;51.626;7.530;2023-03-25T08:19:15;10.10;99.90
13203;DHT22;6666;51.626;7.530;2023-03-25T08:21:44;10.10;99.90
13203;DHT22;6666;51.626;7.530;2023-03-25T08:24:12;10.20;99.90
13203;DHT22;6666;51.626;7.530;2023-03-25T08:26:40;10.20;99.90
13203;DHT22;6666;51.626;7.530;2023-03-25T08:29:09;10.20;99.90
13203;DHT22;6666;51.626;7.530;2023-03-25T08:31:37;10.20;99.90
13203;DHT22;6666;51.626;7.530;2023-03-25T08:34:06;10.30;99.90
13203;DHT22;6666;51.626;7.530;2023-03-25T08:36:36;10.30;99.90
13203;DHT22;6666;51.626;7.530;2023-03-25T08:39:05;10.50;99.90
13203;DHT22;6666;51.626;7.530;2023-03-25T08:41:38;10.60;99.90
13203;DHT22;6666;51.626;7.530;2023-03-25T08:44:07;10.80;99.90
13203;DHT22;6666;51.626;7.530;2023-03-25T08:46:35;10.90;99.90
13203;DHT22;6666;51.626;7.530;2023-03-25T08:49:04;11.00;99.90
13203;DHT22;6666;51.626;7.530;2023-03-25T08:51:33;10.90;99.90
13203;DHT22;6666;51.626;7.530;2023-03-25T08:54:02;10.90;99.90
13203;DHT22;6666;51.626;7.530;2023-03-25T08:56:31;10.90;99.90
13203;DHT22;6666;51.626;7.530;2023-03-25T08:58:59;10.80;99.90
13203;DHT22;6666;51.626;7.530;2023-03-25T09:01:27;10.80;99.90
13203;DHT22;6666;51.626;7.530;2023-03-25T09:03:56;10.70;99.90
13203;DHT22;6666;51.626;7.530;2023-03-25T09:06:25;10.60;99.90
13203;DHT22;6666;51.626;7.530;2023-03-25T09:08:53;10.60;99.90
13203;DHT22;6666;51.626;7.530;2023-03-25T09:11:23;10.60;99.90
13203;DHT22;6666;51.626;7.530;2023-03-25T09:14:02;10.90;99.90
13203;DHT22;6666;51.626;7.530;2023-03-25T09:16:31;11.10;99.90
13203;DHT22;6666;51.626;7.530;2023-03-25T09:19:00;11.50;99.90
13203;DHT22;6666;51.626;7.530;2023-03-25T09:21:29;11.40;99.90
13203;DHT22;6666;51.626;7.530;2023-03-25T09:23:57;11.30;99.90
13203;DHT22;6666;51.626;7.530;2023-03-25T09:26:27;11.10;99.90
13203;DHT22;6666;51.626;7.530;2023-03-25T09:28:55;10.90;99.90
13203;DHT22;6666;51.626;7.530;2023-03-25T09:31:23;10.90;99.90
13203;DHT22;6666;51.626;7.530;2023-03-25T09:33:52;11.00;99.90
13203;DHT22;6666;51.626;7.530;2023-03-25T09:36:20;11.10;99.90
13203;DHT22;6666;51.626;7.530;2023-03-25T09:38:49;11.20;99.90
13203;DHT22;6666;51.626;7.530;2023-03-25T09:41:30;10.90;99.90
13203;DHT22;6666;51.626;7.530;2023-03-25T09:44:04;10.60;99.90
13203;DHT22;6666;51.626;7.530;2023-03-25T09:46:37;10.60;99.90
13203;DHT22;6666;51.626;7.530;2023-03-25T09:49:11;10.80;99.90
13203;DHT22;6666;51.626;7.530;2023-03-25T09:51:42;11.20;99.90
13203;DHT22;6666;51.626;7.530;2023-03-25T09:54:18;11.40;99.90
13203;DHT22;6666;51.626;7.530;2023-03-25T09:56:48;11.70;99.90
13203;DHT22;6666;51.626;7.530;2023-03-25T09:59:19;11.90;99.90
13203;DHT22;6666;51.626;7.530;2023-03-25T10:01:54;12.00;99.90
13203;DHT22;6666;51.626;7.530;2023-03-25T10:04:50;12.00;99.90
13203;DHT22;6666;51.626;7.530;2023-03-25T10:07:34;11.60;99.90
13203;DHT22;6666;51.626;7.530;2023-03-25T10:10:14;11.70;99.90
13203;DHT22;6666;51.626;7.530;2023-03-25T10:12:51;11.50;99.90
13203;DHT22;6666;51.626;7.530;2023-03-25T10:15:29;11.20;99.90
13203;DHT22;6666;51.626;7.530;2023-03-25T10:18:28;10.70;99.90
13203;DHT22;6666;51.626;7.530;2023-03-25T10:21:06;10.50;99.90
13203;DHT22;6666;51.626;7.530;2023-03-25T10:23:40;10.60;99.90
13203;DHT22;6666;51.626;7.530;2023-03-25T10:26:14;10.60;99.90
13203;DHT22;6666;51.626;7.530;2023-03-25T10:28:49;10.70;99.90
13203;DHT22;6666;51.626;7.530;2023-03-25T10:31:22;10.70;99.90
13203;DHT22;6666;51.626;7.530;2023-03-25T10:33:54;10.70;99.90
13203;DHT22;6666;51.626;7.530;2023-03-25T10:36:29;10.60;99.90
13203;DHT22;6666;51.626;7.530;2023-03-25T10:39:00;10.40;99.90
13203;DHT22;6666;51.626;7.530;2023-03-25T10:41:34;10.60;99.90
13203;DHT22;6666;51.626;7.530;2023-03-25T10:44:09;10.60;99.90
13203;DHT22;6666;51.626;7.530;2023-03-25T10:46:39;10.50;99.90
13203;DHT22;6666;51.626;7.530;2023-03-25T10:49:16;10.40;99.90
13203;DHT22;6666;51.626;7.530;2023-03-25T10:51:46;10.30;99.90
13203;DHT22;6666;51.626;7.530;2023-03-25T10:54:15;10.10;99.90
13203;DHT22;6666;51.626;7.530;2023-03-25T10:56:46;10.30;99.90
13203;DHT22;6666;51.626;7.530;2023-03-25T10:59:21;10.10;99.90
13203;DHT22;6666;51.626;7.530;2023-03-25T11:01:51;10.20;99.90
13203;DHT22;6666;51.626;7.530;2023-03-25T11:04:21;10.30;99.90
13203;DHT22;6666;51.626;7.530;2023-03-25T11:06:52;10.60;99.90
13203;DHT22;6666;51.626;7.530;2023-03-25T11:09:25;10.80;99.90
13203;DHT22;6666;51.626;7.530;2023-03-25T11:11:54;11.10;99.90
13203;DHT22;6666;51.626;7.530;2023-03-25T11:14:25;11.00;99.90
13203;DHT22;6666;51.626;7.530;2023-03-25T11:16:55;11.10;99.90
13203;DHT22;6666;51.626;7.530;2023-03-25T11:19:27;10.90;99.90
13203;DHT22;6666;51.626;7.530;2023-03-25T11:21:59;10.90;99.90
13203;DHT22;6666;51.626;7.530;2023-03-25T11:24:31;10.60;99.90
13203;DHT22;6666;51.626;7.530;2023-03-25T11:27:00;10.50;99.90
13203;DHT22;6666;51.626;7.530;2023-03-25T11:29:31;10.40;99.90
13203;DHT22;6666;51.626;7.530;2023-03-25T11:32:06;10.50;99.90
13203;DHT22;6666;51.626;7.530;2023-03-25T11:34:35;10.40;99.90
13203;DHT22;6666;51.626;7.530;2023-03-25T11:37:16;10.10;99.90
13203;DHT22;6666;51.626;7.530;2023-03-25T11:39:49;10.20;99.90
13203;DHT22;6666;51.626;7.530;2023-03-25T11:42:29;10.30;99.90
13203;DHT22;6666;51.626;7.530;2023-03-25T11:45:01;10.50;99.90
13203;DHT22;6666;51.626;7.530;2023-03-25T11:47:31;10.70;99.90
13203;DHT22;6666;51.626;7.530;2023-03-25T11:50:00;10.80;99.90
13203;DHT22;6666;51.626;7.530;2023-03-25T11:52:36;10.80;99.90
13203;DHT22;6666;51.626;7.530;2023-03-25T11:55:15;11.10;99.90
13203;DHT22;6666;51.626;7.530;2023-03-25T11:57:45;11.30;99.90
13203;DHT22;6666;51.626;7.530;2023-03-25T12:00:35;11.50;99.90
13203;DHT22;6666;51.626;7.530;2023-03-25T12:03:08;11.50;99.90
13203;DHT22;6666;51.626;7.530;2023-03-25T12:05:56;11.60;99.90
13203;DHT22;6666;51.626;7.530;2023-03-25T12:08:29;11.80;99.90
13203;DHT22;6666;51.626;7.530;2023-03-25T12:11:01;12.10;99.90
13203;DHT22;6666;51.626;7.530;2023-03-25T12:13:42;12.10;99.90
13203;DHT22;6666;51.626;7.530;2023-03-25T12:16:25;12.10;99.90
13203;DHT22;6666;51.626;7.530;2023-03-25T12:19:08;12.20;99.90
13203;DHT22;6666;51.626;7.530;2023-03-25T12:21:47;12.30;99.90
13203;DHT22;6666;51.626;7.530;2023-03-25T12:24:28;12.20;99.90
13203;DHT22;6666;51.626;7.530;2023-03-25T12:27:10;12.20;99.90
13203;DHT22;6666;51.626;7.530;2023-03-25T12:29:45;12.20;99.90
13203;DHT22;6666;51.626;7.530;2023-03-25T12:32:27;12.20;99.90
13203;DHT22;6666;51.626;7.530;2023-03-25T12:35:06;12.00;99.90
13203;DHT22;6666;51.626;7.530;2023-03-25T12:37:52;11.80;99.90
13203;DHT22;6666;51.626;7.530;2023-03-25T12:40:35;11.60;99.90
13203;DHT22;6666;51.626;7.530;2023-03-25T12:43:10;11.50;99.90
13203;DHT22;6666;51.626;7.530;2023-03-25T12:48:45;11.10;99.90
13203;DHT22;6666;51.626;7.530;2023-03-25T12:51:22;11.10;99.90
13203;DHT22;6666;51.626;7.530;2023-03-25T12:54:00;11.20;99.90
13203;DHT22;6666;51.626;7.530;2023-03-25T12:56:45;11.30;99.90
13203;DHT22;6666;51.626;7.530;2023-03-25T12:59:39;11.40;99.90
13203;DHT22;6666;51.626;7.530;2023-03-25T13:02:23;11.90;99.90
13203;DHT22;6666;51.626;7.530;2023-03-25T13:05:03;12.30;99.90
13203;DHT22;6666;51.626;7.530;2023-03-25T13:07:34;12.50;99.90
13203;DHT22;6666;51.626;7.530;2023-03-25T13:10:12;12.50;99.90
13203;DHT22;6666;51.626;7.530;2023-03-25T13:12:47;12.60;99.90
13203;DHT22;6666;51.626;7.530;2023-03-25T13:15:18;12.80;99.90
13203;DHT22;6666;51.626;7.530;2023-03-25T13:17:56;12.50;99.90
13203;DHT22;6666;51.626;7.530;2023-03-25T13:20:32;12.50;99.90
13203;DHT22;6666;51.626;7.530;2023-03-25T13:23:05;12.50;99.90
13203;DHT22;6666;51.626;7.530;2023-03-25T13:25:48;12.60;99.90
13203;DHT22;6666;51.626;7.530;2023-03-25T13:28:22;12.50;99.90
13203;DHT22;6666;51.626;7.530;2023-03-25T13:30:53;12.60;99.90
13203;DHT22;6666;51.626;7.530;2023-03-25T13:33:26;12.60;99.90
13203;DHT22;6666;51.626;7.530;2023-03-25T13:35:59;12.40;99.90
13203;DHT22;6666;51.626;7.530;2023-03-25T13:38:34;12.30;99.90
13203;DHT22;6666;51.626;7.530;2023-03-25T13:41:09;12.20;99.90
13203;DHT22;6666;51.626;7.530;2023-03-25T13:43:48;12.20;99.90
13203;DHT22;6666;51.626;7.530;2023-03-25T13:46:21;12.30;99.90
13203;DHT22;6666;51.626;7.530;2023-03-25T13:48:54;12.60;99.90
13203;DHT22;6666;51.626;7.530;2023-03-25T13:51:25;12.90;99.90
13203;DHT22;6666;51.626;7.530;2023-03-25T13:53:56;12.90;99.90
13203;DHT22;6666;51.626;7.530;2023-03-25T13:59:56;12.50;99.90
13203;DHT22;6666;51.626;7.530;2023-03-25T14:03:00;12.50;99.90
13203;DHT22;6666;51.626;7.530;2023-03-25T14:05:59;12.70;99.90
13203;DHT22;6666;51.626;7.530;2023-03-25T14:12:00;12.90;99.90
13203;DHT22;6666;51.626;7.530;2023-03-25T14:14:34;13.30;99.90
13203;DHT22;6666;51.626;7.530;2023-03-25T14:17:04;13.00;99.90
13203;DHT22;6666;51.626;7.530;2023-03-25T14:19:35;12.70;99.90
13203;DHT22;6666;51.626;7.530;2023-03-25T14:22:07;12.30;99.90
13203;DHT22;6666;51.626;7.530;2023-03-25T14:24:35;12.40;99.90
13203;DHT22;6666;51.626;7.530;2023-03-25T14:27:11;12.60;99.90
13203;DHT22;6666;51.626;7.530;2023-03-25T14:29:44;12.50;99.90
13203;DHT22;6666;51.626;7.530;2023-03-25T14:32:31;12.40;99.90
13203;DHT22;6666;51.626;7.530;2023-03-25T14:44:19;12.50;99.90
13203;DHT22;6666;51.626;7.530;2023-03-25T14:46:48;12.30;99.90
13203;DHT22;6666;51.626;7.530;2023-03-25T14:49:46;12.30;99.90
13203;DHT22;6666;51.626;7.530;2023-03-25T14:52:25;12.30;99.90
13203;DHT22;6666;51.626;7.530;2023-03-25T14:54:56;12.20;99.90
13203;DHT22;6666;51.626;7.530;2023-03-25T14:57:37;12.50;99.90
13203;DHT22;6666;51.626;7.530;2023-03-25T15:00:15;12.60;99.90
13203;DHT22;6666;51.626;7.530;2023-03-25T15:02:50;12.40;99.90
13203;DHT22;6666;51.626;7.530;2023-03-25T15:05:24;12.20;99.90
13203;DHT22;6666;51.626;7.530;2023-03-25T15:07:57;12.40;99.90
13203;DHT22;6666;51.626;7.530;2023-03-25T15:10:30;12.20;99.90
13203;DHT22;6666;51.626;7.530;2023-03-25T15:13:03;12.40;99.90
13203;DHT22;6666;51.626;7.530;2023-03-25T15:15:52;12.20;99.90
13203;DHT22;6666;51.626;7.530;2023-03-25T15:21:31;11.90;99.90
13203;DHT22;6666;51.626;7.530;2023-03-25T15:24:06;11.90;99.90
13203;DHT22;6666;51.626;7.530;2023-03-25T15:26:38;11.80;99.90
13203;DHT22;6666;51.626;7.530;2023-03-25T15:29:19;11.50;99.90
13203;DHT22;6666;51.626;7.530;2023-03-25T15:32:02;11.40;99.90
13203;DHT22;6666;51.626;7.530;2023-03-25T15:34:47;11.40;99.90
13203;DHT22;6666;51.626;7.530;2023-03-25T15:40:28;11.30;99.90
13203;DHT22;6666;51.626;7.530;2023-03-25T15:43:22;11.30;99.90
13203;DHT22;6666;51.626;7.530;2023-03-25T15:49:05;11.70;99.90
13203;DHT22;6666;51.626;7.530;2023-03-25T15:51:45;11.60;99.90
13203;DHT22;6666;51.626;7.530;2023-03-25T15:54:30;11.50;99.90
13203;DHT22;6666;51.626;7.530;2023-03-25T15:57:04;11.60;99.90
13203;DHT22;6666;51.626;7.530;2023-03-25T15:59:40;11.50;99.90
13203;DHT22;6666;51.626;7.530;2023-03-25T16:02:20;11.50;99.90
13203;DHT22;6666;51.626;7.530;2023-03-25T16:04:54;11.40;99.90
13203;DHT22;6666;51.626;7.530;2023-03-25T16:07:25;11.30;99.90
13203;DHT22;6666;51.626;7.530;2023-03-25T16:10:03;11.30;99.90
13203;DHT22;6666;51.626;7.530;2023-03-25T16:12:32;11.40;99.90
13203;DHT22;6666;51.626;7.530;2023-03-25T16:15:04;11.50;99.90
13203;DHT22;6666;51.626;7.530;2023-03-25T16:17:34;11.60;99.90
13203;DHT22;6666;51.626;7.530;2023-03-25T16:20:06;11.50;99.90
13203;DHT22;6666;51.626;7.530;2023-03-25T16:22:36;11.40;99.90
13203;DHT22;6666;51.626;7.530;2023-03-25T16:25:13;11.50;99.90
13203;DHT22;6666;51.626;7.530;2023-03-25T16:27:45;11.60;99.90
13203;DHT22;6666;51.626;7.530;2023-03-25T16:30:20;11.60;99.90
13203;DHT22;6666;51.626;7.530;2023-03-25T16:32:50;11.50;99.90
13203;DHT22;6666;51.626;7.530;2023-03-25T16:35:25;11.60;99.90
13203;DHT22;6666;51.626;7.530;2023-03-25T16:37:55;11.30;99.90
13203;DHT22;6666;51.626;7.530;2023-03-25T16:40:27;11.20;99.90
13203;DHT22;6666;51.626;7.530;2023-03-25T16:43:03;11.20;99.90
13203;DHT22;6666;51.626;7.530;2023-03-25T16:45:32;11.20;99.90
13203;DHT22;6666;51.626;7.530;2023-03-25T16:48:04;11.10;99.90
13203;DHT22;6666;51.626;7.530;2023-03-25T16:50:37;11.00;99.90
13203;DHT22;6666;51.626;7.530;2023-03-25T16:53:06;10.90;99.90
13203;DHT22;6666;51.626;7.530;2023-03-25T16:55:43;10.70;99.90
13203;DHT22;6666;51.626;7.530;2023-03-25T16:58:16;10.70;99.90
13203;DHT22;6666;51.626;7.530;2023-03-25T17:00:47;10.50;99.90